Time;durP1;ratioP1;P1;durP2;ratioP2;P2;SDS_P1;SDS_P2;PMS_P1;PMS_P2;Temp;Humidity;BMP_temperature;BMP_pressure;BME280_temperature;BME280_humidity;BME280_pressure;Samples;Min_cycle;Max_cycle;Signal;HPM_P1;HPM_P2
2022/12/13 00:01:30;;;;;;;;;;;;;;;2.79;52.46;98700.59;4514900;31;34305;-82
2022/12/13 00:03:59;;;;;;;;;;;;;;;2.71;52.79;98700.31;4515782;31;34183;-82
2022/12/13 00:06:26;;;;;;;;;;;;;;;3.36;51.22;98708.56;4515759;31;34860;-82
2022/12/13 00:08:53;;;;;;;;;;;;;;;2.03;54.29;98716.50;4514934;31;34885;-82
2022/12/13 00:11:21;;;;;;;;;;;;;;;3.69;50.50;98716.50;4515827;31;33680;-82
2022/12/13 00:13:48;;;;;;;;;;;;;;;3.08;51.99;98719.56;4515500;31;34290;-82
2022/12/13 00:16:17;;;;;;;;;;;;;;;3.67;49.69;98707.88;4514332;31;33239;-82
2022/12/13 00:18:48;;;;;;;;;;;;;;;3.93;49.52;98705.28;4515420;31;34921;-84
2022/12/13 00:21:16;;;;;;;;;;;;;;;3.79;49.62;98709.97;4515701;31;34336;-84
2022/12/13 00:23:44;;;;;;;;;;;;;;;4.18;48.33;98712.94;4515560;31;34125;-83
2022/12/13 00:26:15;;;;;;;;;;;;;;;3.83;49.12;98709.28;4499327;31;34092;-83
2022/12/13 00:28:43;;;;;;;;;;;;;;;3.84;49.15;98706.75;4513011;31;35098;-83
2022/12/13 00:31:10;;;;;;;;;;;;;;;4.05;48.53;98708.22;4514796;31;33899;-84
2022/12/13 00:33:58;;;;;;;;;;;;;;;3.98;48.94;98709.75;4515873;31;32535;-84
2022/12/13 00:36:25;;;;;;;;;;;;;;;5.06;46.19;98708.62;4514143;31;33605;-82
2022/12/13 00:38:59;;;;;;;;;;;;;;;4.03;48.17;98713.31;4515558;31;34396;-84
2022/12/13 00:41:31;;;;;;;;;;;;;;;4.01;48.23;98721.78;4515139;31;35054;-83
2022/12/13 00:43:58;;;;;;;;;;;;;;;4.18;48.36;98728.31;4512554;31;33696;-82
2022/12/13 00:46:26;;;;;;;;;;;;;;;4.71;46.71;98736.75;4510617;31;34749;-83
2022/12/13 00:48:54;;;;;;;;;;;;;;;4.83;46.30;98737.09;4505950;31;34586;-82
2022/12/13 00:51:22;;;;;;;;;;;;;;;4.75;45.72;98735.16;4499170;31;35100;-83
2022/12/13 00:53:49;;;;;;;;;;;;;;;3.83;48.39;98734.91;4498764;31;32667;-84
2022/12/13 00:56:20;;;;;;;;;;;;;;;4.15;47.71;98747.06;4520800;31;34628;-84
2022/12/13 00:58:48;;;;;;;;;;;;;;;4.17;47.50;98749.69;4505642;31;34104;-84
2022/12/13 01:01:20;;;;;;;;;;;;;;;5.01;45.99;98752.19;4513569;31;34094;-84
2022/12/13 01:03:48;;;;;;;;;;;;;;;5.25;44.44;98740.81;4499533;31;32973;-83
2022/12/13 01:06:19;;;;;;;;;;;;;;;4.52;46.44;98745.63;4500394;31;34143;-83
2022/12/13 01:08:47;;;;;;;;;;;;;;;4.60;46.51;98749.28;4484882;31;34808;-83
2022/12/13 01:11:14;;;;;;;;;;;;;;;5.51;43.95;98747.53;4499298;31;34712;-82
2022/12/13 01:13:41;;;;;;;;;;;;;;;5.06;45.10;98749.72;4507723;31;33338;-84
2022/12/13 01:16:10;;;;;;;;;;;;;;;4.24;47.09;98756.72;4500893;31;34655;-83
2022/12/13 01:18:38;;;;;;;;;;;;;;;4.81;46.13;98753.28;4515405;31;34084;-83
2022/12/13 01:21:11;;;;;;;;;;;;;;;4.59;46.75;98757.81;4513861;31;34192;-83
2022/12/13 01:23:42;;;;;;;;;;;;;;;4.00;47.94;98754.25;4502235;31;33208;-84
2022/12/13 01:26:14;;;;;;;;;;;;;;;4.24;47.28;98764.41;4485064;31;34063;-82
2022/12/13 01:28:42;;;;;;;;;;;;;;;5.07;45.30;98770.31;4501135;31;34101;-83
2022/12/13 01:31:10;;;;;;;;;;;;;;;4.31;46.92;98762.91;4501973;31;34094;-82
2022/12/13 01:33:38;;;;;;;;;;;;;;;4.94;45.47;98764.81;4510492;31;33538;-82
2022/12/13 01:36:10;;;;;;;;;;;;;;;4.04;47.95;98770.62;4500749;31;33845;-83
2022/12/13 01:38:37;;;;;;;;;;;;;;;4.09;47.52;98763.94;4500384;31;34721;-82
2022/12/13 01:41:05;;;;;;;;;;;;;;;4.93;45.60;98774.22;4499193;31;34319;-83
2022/12/13 01:43:46;;;;;;;;;;;;;;;5.09;44.82;98765.22;4505166;31;33087;-83
2022/12/13 01:46:15;;;;;;;;;;;;;;;5.09;45.05;98765.22;4512979;31;33982;-84
2022/12/13 01:48:54;;;;;;;;;;;;;;;4.62;45.36;98764.72;4510148;31;34126;-84
2022/12/13 01:51:24;;;;;;;;;;;;;;;5.09;44.54;98768.66;4499714;31;34797;-82
2022/12/13 01:53:51;;;;;;;;;;;;;;;4.87;44.64;98771.44;4505918;31;33197;-84
2022/12/13 01:56:20;;;;;;;;;;;;;;;4.27;45.99;98772.22;4488993;31;34117;-84
2022/12/13 01:58:47;;;;;;;;;;;;;;;4.95;45.07;98776.81;4490577;31;34073;-84
2022/12/13 02:01:15;;;;;;;;;;;;;;;5.10;44.47;98775.53;4500850;31;34867;-82
2022/12/13 02:03:42;;;;;;;;;;;;;;;5.22;43.90;98772.44;4505049;31;33781;-83
2022/12/13 02:06:11;;;;;;;;;;;;;;;5.28;43.53;98766.63;4499078;31;33759;-84
2022/12/13 02:08:39;;;;;;;;;;;;;;;5.34;43.72;98765.09;4498146;31;34343;-82
2022/12/13 02:11:07;;;;;;;;;;;;;;;5.00;43.96;98765.84;4483939;31;34194;-82
2022/12/13 02:13:34;;;;;;;;;;;;;;;5.40;43.30;98751.50;4470803;31;33640;-83
2022/12/13 02:16:10;;;;;;;;;;;;;;;5.26;44.01;98763.12;4498347;31;33999;-84
2022/12/13 02:18:56;;;;;;;;;;;;;;;5.35;43.20;98753.09;4498441;31;34383;-84
2022/12/13 02:21:28;;;;;;;;;;;;;;;5.40;43.23;98753.22;4498206;31;34152;-83
2022/12/13 02:23:59;;;;;;;;;;;;;;;5.19;43.70;98756.97;4483208;31;33732;-83
2022/12/13 02:26:35;;;;;;;;;;;;;;;5.51;43.26;98749.22;4510919;31;33896;-83
2022/12/13 02:29:05;;;;;;;;;;;;;;;5.03;44.09;98749.63;4506051;31;35465;-84
2022/12/13 02:31:51;;;;;;;;;;;;;;;5.65;42.33;98742.75;4514325;31;34320;-82
2022/12/13 02:34:23;;;;;;;;;;;;;;;4.45;44.42;98753.09;4505261;31;33708;-84
2022/12/13 02:36:51;;;;;;;;;;;;;;;5.19;43.71;98756.97;4500859;31;34644;-85
2022/12/13 02:39:20;;;;;;;;;;;;;;;5.29;43.33;98756.34;4505243;31;35317;-82
2022/12/13 02:42:00;;;;;;;;;;;;;;;5.35;43.20;98761.69;4485088;31;33354;-83
2022/12/13 02:44:47;;;;;;;;;;;;;;;5.70;42.63;98761.72;4483995;31;34104;-83
2022/12/13 02:47:18;;;;;;;;;;;;;;;5.36;42.81;98765.13;4498627;31;34872;-82
2022/12/13 02:49:50;;;;;;;;;;;;;;;5.64;42.41;98769.28;4498647;31;34279;-83
2022/12/13 02:52:18;;;;;;;;;;;;;;;6.13;41.29;98760.22;4484692;31;34729;-84
2022/12/13 02:54:49;;;;;;;;;;;;;;;5.98;40.74;98754.72;4486044;31;33431;-83
2022/12/13 02:57:28;;;;;;;;;;;;;;;5.91;40.91;98761.41;4505945;31;34886;-83
2022/12/13 03:00:01;;;;;;;;;;;;;;;6.06;40.52;98761.81;4509618;31;34353;-84
2022/12/13 03:02:34;;;;;;;;;;;;;;;6.43;39.61;98752.34;4491379;31;33803;-84
2022/12/13 03:08:00;;;;;;;;;;;;;;;6.27;39.39;98761.44;4515598;31;34553;-84
2022/12/13 03:10:29;;;;;;;;;;;;;;;6.04;39.91;98763.47;4514721;31;34383;-84
2022/12/13 03:15:47;;;;;;;;;;;;;;;5.91;39.91;98761.41;4489373;31;31809;-83
2022/12/13 03:18:15;;;;;;;;;;;;;;;6.15;39.59;98761.16;4515477;31;35056;-82
2022/12/13 03:20:50;;;;;;;;;;;;;;;5.95;39.17;98760.69;4515073;31;35243;-83
2022/12/13 03:23:20;;;;;;;;;;;;;;;6.08;38.94;98766.97;4501033;31;34476;-83
2022/12/13 03:25:48;;;;;;;;;;;;;;;5.84;39.51;98768.09;4504286;31;33767;-82
2022/12/13 03:28:16;;;;;;;;;;;;;;;6.04;38.86;98763.47;4486427;31;33683;-85
2022/12/13 03:30:43;;;;;;;;;;;;;;;6.03;39.15;98766.87;4507827;31;34766;-84
2022/12/13 03:33:10;;;;;;;;;;;;;;;6.01;38.73;98771.09;4499935;31;34748;-83
2022/12/13 03:35:41;;;;;;;;;;;;;;;5.94;38.78;98774.34;4515409;31;31852;-84
2022/12/13 03:38:12;;;;;;;;;;;;;;;5.97;38.96;98784.72;4489600;31;34887;-84
2022/12/13 03:40:57;;;;;;;;;;;;;;;5.76;39.26;98777.31;4501617;31;35204;-84
2022/12/13 03:43:25;;;;;;;;;;;;;;;5.73;39.08;98786.66;4489572;31;34270;-83
2022/12/13 03:45:53;;;;;;;;;;;;;;;5.55;39.45;98781.91;4485763;31;33061;-82
2022/12/13 03:48:20;;;;;;;;;;;;;;;5.71;39.35;98784.03;4499603;31;34162;-83
2022/12/13 03:50:50;;;;;;;;;;;;;;;5.91;39.00;98783.66;4504621;31;34572;-83
2022/12/13 03:53:17;;;;;;;;;;;;;;;5.78;38.82;98774.78;4514892;31;34873;-84
2022/12/13 03:55:59;;;;;;;;;;;;;;;5.81;38.88;98775.72;4500215;31;33410;-84
2022/12/13 03:58:28;;;;;;;;;;;;;;;5.90;38.80;98764.78;4499578;31;34342;-85
2022/12/13 04:01:05;;;;;;;;;;;;;;;5.92;38.79;98767.41;4509304;31;34287;-84
2022/12/13 04:03:32;;;;;;;;;;;;;;;5.98;38.55;98772.72;4514242;31;35158;-82
2022/12/13 04:05:59;;;;;;;;;;;;;;;5.89;38.39;98772.47;4503906;31;34152;-85
2022/12/13 04:08:27;;;;;;;;;;;;;;;6.00;38.14;98776.22;4509554;31;33782;-84
2022/12/13 04:10:54;;;;;;;;;;;;;;;5.86;37.97;98787.00;4511276;31;35188;-85
2022/12/13 04:13:33;;;;;;;;;;;;;;;5.85;37.82;98795.56;4508571;31;34239;-84
2022/12/13 04:16:01;;;;;;;;;;;;;;;5.75;38.14;98795.28;4499839;31;32425;-85
2022/12/13 04:18:28;;;;;;;;;;;;;;;5.68;38.17;98793.38;4501625;31;34027;-84
2022/12/13 04:20:56;;;;;;;;;;;;;;;5.84;37.84;98791.25;4502387;31;34261;-84
2022/12/13 04:23:23;;;;;;;;;;;;;;;5.69;37.96;98784.84;4510041;31;33865;-84
2022/12/13 04:25:51;;;;;;;;;;;;;;;5.81;37.97;98786.00;4506357;31;33383;-84
2022/12/13 04:28:18;;;;;;;;;;;;;;;5.61;38.30;98784.66;4514944;31;34948;-83
2022/12/13 04:30:49;;;;;;;;;;;;;;;5.67;38.16;98776.19;4513527;31;35207;-83
2022/12/13 04:33:23;;;;;;;;;;;;;;;5.50;38.56;98783.50;4499701;31;34835;-84
2022/12/13 04:35:50;;;;;;;;;;;;;;;5.66;38.37;98782.19;4506692;31;34223;-82
2022/12/13 04:38:17;;;;;;;;;;;;;;;5.46;38.52;98779.97;4499668;31;33646;-83
2022/12/13 04:40:45;;;;;;;;;;;;;;;5.59;38.03;98781.16;4507960;31;35181;-82
2022/12/13 04:43:12;;;;;;;;;;;;;;;5.59;38.13;98784.59;4507910;31;34916;-84
2022/12/13 04:45:39;;;;;;;;;;;;;;;5.54;38.06;98785.31;4499474;31;33999;-84
2022/12/13 04:48:07;;;;;;;;;;;;;;;5.54;37.93;98788.75;4500239;31;34194;-85
2022/12/13 04:50:34;;;;;;;;;;;;;;;5.61;37.81;98782.94;4500798;31;34565;-85
2022/12/13 04:53:02;;;;;;;;;;;;;;;5.68;37.77;98776.22;4514066;31;33941;-84
2022/12/13 04:55:29;;;;;;;;;;;;;;;5.47;37.89;98776.56;4508085;31;33093;-85
2022/12/13 04:57:56;;;;;;;;;;;;;;;5.27;38.28;98786.31;4513986;31;33636;-83
2022/12/13 05:00:23;;;;;;;;;;;;;;;5.28;38.31;98782.91;4503828;31;33913;-85
2022/12/13 05:02:50;;;;;;;;;;;;;;;5.59;37.57;98778.56;4512836;31;33270;-85
2022/12/13 05:05:18;;;;;;;;;;;;;;;5.40;37.96;98774.66;4509131;31;34128;-83
2022/12/13 05:07:45;;;;;;;;;;;;;;;5.52;37.74;98777.53;4506897;31;34591;-83
2022/12/13 05:10:12;;;;;;;;;;;;;;;5.57;37.57;98780.25;4505710;31;34225;-84
2022/12/13 05:13:00;;;;;;;;;;;;;;;5.49;37.44;98781.72;4500881;31;35328;-85
2022/12/13 05:15:29;;;;;;;;;;;;;;;5.33;37.57;98791.59;4500861;31;32873;-85
2022/12/13 05:18:03;;;;;;;;;;;;;;;5.48;37.41;98782.56;4507409;31;34928;-83
2022/12/13 05:20:37;;;;;;;;;;;;;;;5.69;36.86;98783.13;4527579;31;34149;-85
2022/12/13 05:23:05;;;;;;;;;;;;;;;5.49;37.24;98786.88;4530209;31;34170;-85
2022/12/13 05:25:33;;;;;;;;;;;;;;;5.41;37.54;98790.94;4507344;31;33402;-85
2022/12/13 05:28:00;;;;;;;;;;;;;;;5.47;37.33;98802.25;4523789;31;34790;-83
2022/12/13 05:30:47;;;;;;;;;;;;;;;5.29;37.51;98794.03;4517130;31;35244;-84
2022/12/13 05:33:15;;;;;;;;;;;;;;;5.44;37.32;98803.87;4503070;31;34566;-83
2022/12/13 05:35:42;;;;;;;;;;;;;;;5.24;37.42;98799.06;4509195;31;32873;-84
2022/12/13 05:38:09;;;;;;;;;;;;;;;5.24;37.67;98796.50;4512730;31;33980;-82
2022/12/13 05:40:36;;;;;;;;;;;;;;;5.16;37.62;98797.97;4506357;31;34186;-85
2022/12/13 05:43:04;;;;;;;;;;;;;;;5.19;37.54;98799.75;4471907;31;32903;-83
2022/12/13 05:45:48;;;;;;;;;;;;;;;5.01;37.91;98797.56;4512912;31;33305;-83
2022/12/13 05:48:15;;;;;;;;;;;;;;;5.04;38.34;98797.66;4493638;31;33983;-82
2022/12/13 05:50:51;;;;;;;;;;;;;;;5.16;37.92;98790.28;4495153;31;33955;-83
2022/12/13 05:53:38;;;;;;;;;;;;;;;5.17;37.86;98786.00;4500965;31;34929;-85
2022/12/13 05:56:06;;;;;;;;;;;;;;;5.22;37.89;98787.84;4493860;31;32941;-84
2022/12/13 05:58:33;;;;;;;;;;;;;;;5.30;37.70;98801.81;4483209;31;33489;-85
2022/12/13 06:01:06;;;;;;;;;;;;;;;5.22;37.59;98800.72;4494884;31;35176;-84
2022/12/13 06:03:34;;;;;;;;;;;;;;;5.32;37.30;98800.16;4497452;31;33886;-85
2022/12/13 06:06:01;;;;;;;;;;;;;;;5.20;37.30;98807.53;4490802;31;34094;-85
2022/12/13 06:08:29;;;;;;;;;;;;;;;5.16;37.40;98807.41;4497157;31;34059;-83
2022/12/13 06:11:00;;;;;;;;;;;;;;;5.04;37.71;98803.66;4497154;31;33795;-83
2022/12/13 06:13:41;;;;;;;;;;;;;;;5.01;37.82;98798.41;4497131;31;34810;-83
2022/12/13 06:16:11;;;;;;;;;;;;;;;5.03;38.12;98804.44;4467019;32;34122;-85
2022/12/13 06:18:51;;;;;;;;;;;;;;;5.27;37.75;98806.88;4481314;32;34273;-85
2022/12/13 06:21:27;;;;;;;;;;;;;;;5.08;38.13;98809.75;4482149;32;34891;-85
2022/12/13 06:24:09;;;;;;;;;;;;;;;5.28;37.40;98813.75;4485086;31;34345;-86
2022/12/13 06:26:37;;;;;;;;;;;;;;;5.19;37.38;98813.50;4486918;31;34135;-83
2022/12/13 06:29:04;;;;;;;;;;;;;;;5.23;37.27;98819.59;4481997;31;33570;-85
2022/12/13 06:31:31;;;;;;;;;;;;;;;5.25;37.23;98815.34;4496598;31;34831;-84
2022/12/13 06:34:02;;;;;;;;;;;;;;;5.01;37.60;98820.66;4508022;31;34603;-84
2022/12/13 06:36:41;;;;;;;;;;;;;;;5.18;37.56;98826.28;4491668;31;33015;-82
2022/12/13 06:39:09;;;;;;;;;;;;;;;5.09;37.77;98832.03;4501040;31;33806;-83
2022/12/13 06:41:36;;;;;;;;;;;;;;;4.94;38.17;98829.03;4499316;31;34006;-82
2022/12/13 06:44:03;;;;;;;;;;;;;;;4.83;38.68;98829.56;4500206;31;33778;-83
2022/12/13 06:46:31;;;;;;;;;;;;;;;4.77;39.12;98831.97;4500510;31;34052;-83
2022/12/13 06:48:58;;;;;;;;;;;;;;;4.60;39.61;98838.28;4504137;31;34835;-85
2022/12/13 06:51:25;;;;;;;;;;;;;;;4.88;39.28;98840.84;4515708;31;34155;-84
2022/12/13 06:54:01;;;;;;;;;;;;;;;5.03;38.95;98836.97;4515777;31;33877;-84
2022/12/13 06:56:28;;;;;;;;;;;;;;;5.07;38.79;98849.09;4514942;31;32914;-83
2022/12/13 06:58:57;;;;;;;;;;;;;;;5.18;38.48;98849.41;4515541;31;33884;-83
2022/12/13 07:01:29;;;;;;;;;;;;;;;5.14;38.54;98853.59;4515842;31;34559;-83
2022/12/13 07:04:08;;;;;;;;;;;;;;;4.84;39.01;98846.72;4517095;31;33521;-84
2022/12/13 07:06:56;;;;;;;;;;;;;;;4.99;39.22;98861.72;4505019;31;33405;-83
2022/12/13 07:09:31;;;;;;;;;;;;;;;4.96;39.44;98864.19;4514929;31;33762;-83
2022/12/13 07:11:59;;;;;;;;;;;;;;;5.03;39.29;98862.69;4515855;31;35195;-83
2022/12/13 07:14:26;;;;;;;;;;;;;;;5.05;39.34;98872.19;4515250;31;33883;-83
2022/12/13 07:16:53;;;;;;;;;;;;;;;5.12;39.14;98873.25;4514265;31;33080;-84
2022/12/13 07:19:30;;;;;;;;;;;;;;;5.02;39.43;98868.66;4499745;31;34204;-85
2022/12/13 07:22:08;;;;;;;;;;;;;;;5.16;39.25;98869.06;4504841;31;34396;-83
2022/12/13 07:24:35;;;;;;;;;;;;;;;4.98;39.62;98866.81;4505125;31;34954;-82
2022/12/13 07:27:03;;;;;;;;;;;;;;;5.20;39.32;98860.63;4510433;31;32792;-84
2022/12/13 07:29:30;;;;;;;;;;;;;;;5.11;39.38;98872.37;4515587;31;34269;-82
2022/12/13 07:31:58;;;;;;;;;;;;;;;5.01;40.02;98864.34;4499751;31;32495;-83
2022/12/13 07:34:28;;;;;;;;;;;;;;;5.01;40.44;98869.50;4528596;31;34860;-84
2022/12/13 07:36:56;;;;;;;;;;;;;;;4.93;40.78;98865.81;4521047;31;32942;-84
2022/12/13 07:39:25;;;;;;;;;;;;;;;4.24;42.71;98867.06;4512270;31;33917;-86
2022/12/13 07:41:55;;;;;;;;;;;;;;;4.48;42.73;98882.41;4514493;31;34412;-85
2022/12/13 07:44:23;;;;;;;;;;;;;;;4.96;41.32;98873.59;4514570;31;34357;-83
2022/12/13 07:46:51;;;;;;;;;;;;;;;4.99;40.82;98876.25;4503040;31;33311;-82
2022/12/13 07:49:18;;;;;;;;;;;;;;;4.73;42.01;98878.88;4500284;31;34252;-84
2022/12/13 07:51:46;;;;;;;;;;;;;;;5.25;41.33;98877.91;4515264;31;35282;-84
2022/12/13 07:54:14;;;;;;;;;;;;;;;5.43;40.67;98882.72;4515132;31;34849;-83
2022/12/13 07:56:41;;;;;;;;;;;;;;;5.55;39.98;98874.47;4514527;31;33558;-84
2022/12/13 07:59:09;;;;;;;;;;;;;;;5.34;40.50;98877.28;4515112;31;34227;-85
2022/12/13 08:01:36;;;;;;;;;;;;;;;5.30;40.67;98878.03;4524004;31;34022;-87
2022/12/13 08:04:04;;;;;;;;;;;;;;;5.20;41.23;98879.47;4530387;31;34717;-86
2022/12/13 08:06:35;;;;;;;;;;;;;;;5.24;40.89;98877.88;4521394;31;33542;-86
2022/12/13 08:09:02;;;;;;;;;;;;;;;4.92;41.70;98876.91;4515492;31;33836;-86
2022/12/13 08:11:30;;;;;;;;;;;;;;;5.33;41.29;98879.00;4515377;31;34376;-86
2022/12/13 08:13:57;;;;;;;;;;;;;;;4.83;42.24;98883.50;4515745;31;34299;-86
2022/12/13 08:16:24;;;;;;;;;;;;;;;5.14;41.63;98887.00;4508270;31;34551;-83
2022/12/13 08:18:58;;;;;;;;;;;;;;;5.12;41.52;98883.53;4510653;31;35357;-85
2022/12/13 08:21:39;;;;;;;;;;;;;;;5.52;40.80;98885.53;4514028;31;35223;-84
2022/12/13 08:24:25;;;;;;;;;;;;;;;4.23;43.05;98885.84;4499553;31;34983;-84
2022/12/13 08:26:53;;;;;;;;;;;;;;;4.75;42.36;98882.41;4499446;31;33798;-84
2022/12/13 08:29:20;;;;;;;;;;;;;;;4.57;42.87;98887.81;4498616;31;35076;-84
2022/12/13 08:32:02;;;;;;;;;;;;;;;5.02;41.71;98887.50;4521013;31;34212;-84
2022/12/13 08:34:30;;;;;;;;;;;;;;;4.46;43.23;98889.16;4531468;31;33913;-83
2022/12/13 08:36:58;;;;;;;;;;;;;;;4.99;41.69;98882.25;4517154;31;33393;-84
2022/12/13 08:39:30;;;;;;;;;;;;;;;3.79;44.58;98892.91;4531577;31;34365;-83
2022/12/13 08:42:14;;;;;;;;;;;;;;;4.50;43.67;98895.28;4516710;31;32669;-85
2022/12/13 08:44:49;;;;;;;;;;;;;;;4.87;42.29;98890.47;4501291;31;1003258;-83
2022/12/13 08:47:22;;;;;;;;;;;;;;;4.44;43.84;98895.09;4531457;31;33034;-84
2022/12/13 08:49:53;;;;;;;;;;;;;;;4.45;43.64;98899.41;4531278;31;34770;-83
2022/12/13 08:52:21;;;;;;;;;;;;;;;3.93;45.00;98889.94;4524589;31;35126;-84
2022/12/13 08:54:48;;;;;;;;;;;;;;;3.29;45.97;98891.94;4515428;31;34251;-84
2022/12/13 08:57:16;;;;;;;;;;;;;;;4.16;44.55;98881.31;4514167;31;33217;-85
2022/12/13 08:59:44;;;;;;;;;;;;;;;4.53;43.83;98892.81;4515277;31;34532;-85
2022/12/13 09:02:14;;;;;;;;;;;;;;;3.19;46.75;98899.25;4515271;31;35271;-85
2022/12/13 09:04:41;;;;;;;;;;;;;;;4.02;45.05;98895.41;4514972;31;34569;-85
2022/12/13 09:07:08;;;;;;;;;;;;;;;5.00;43.02;98889.16;4515354;31;33191;-85
2022/12/13 09:09:35;;;;;;;;;;;;;;;4.81;43.47;98894.53;4515306;31;34163;-86
2022/12/13 09:12:04;;;;;;;;;;;;;;;4.94;42.84;98890.66;4515129;31;34234;-84
2022/12/13 09:14:37;;;;;;;;;;;;;;;4.77;43.29;98890.13;4515173;31;34276;-84
2022/12/13 09:17:15;;;;;;;;;;;;;;;3.50;46.42;98888.44;4515103;31;33422;-85
2022/12/13 09:19:51;;;;;;;;;;;;;;;3.82;45.52;98893.00;4515090;31;34963;-85
2022/12/13 09:22:25;;;;;;;;;;;;;;;4.50;44.35;98896.13;4514959;31;34332;-85
2022/12/13 09:25:00;;;;;;;;;;;;;;;4.81;43.03;98882.59;4513765;31;34290;-85
2022/12/13 09:27:29;;;;;;;;;;;;;;;4.26;44.70;98892.78;4515189;31;34279;-85
2022/12/13 09:30:07;;;;;;;;;;;;;;;4.04;45.17;98898.88;4515339;31;34844;-85
2022/12/13 09:32:35;;;;;;;;;;;;;;;4.37;44.59;98894.88;4515062;31;34299;-85
2022/12/13 09:35:03;;;;;;;;;;;;;;;5.22;42.84;98894.94;4514861;31;34520;-85
2022/12/13 09:37:30;;;;;;;;;;;;;;;4.35;44.24;98893.94;4514977;31;33822;-85
2022/12/13 09:39:58;;;;;;;;;;;;;;;4.27;44.48;98887.69;4514846;31;34060;-86
2022/12/13 09:42:43;;;;;;;;;;;;;;;4.33;43.65;98882.78;4515062;31;33874;-85
2022/12/13 09:45:12;;;;;;;;;;;;;;;4.65;43.47;98880.34;4514984;31;34357;-86
2022/12/13 09:47:49;;;;;;;;;;;;;;;4.73;43.33;98878.03;4513818;31;33331;-85
2022/12/13 09:50:19;;;;;;;;;;;;;;;5.07;42.78;98873.09;4514943;31;34322;-86
2022/12/13 09:52:51;;;;;;;;;;;;;;;5.16;42.80;98880.22;4516315;31;34413;-85
2022/12/13 09:55:31;;;;;;;;;;;;;;;5.55;42.00;98877.03;4530718;31;35406;-86
2022/12/13 09:57:59;;;;;;;;;;;;;;;4.87;42.60;98871.63;4516338;31;33012;-85
2022/12/13 10:00:29;;;;;;;;;;;;;;;5.12;42.72;98873.25;4516116;31;34062;-87
2022/12/13 10:02:57;;;;;;;;;;;;;;;5.75;41.01;98869.88;4515675;31;35370;-86
2022/12/13 10:05:37;;;;;;;;;;;;;;;3.84;43.91;98872.56;4530823;31;34300;-86
2022/12/13 10:08:20;;;;;;;;;;;;;;;4.26;43.73;98872.25;4528222;31;32721;-85
2022/12/13 10:10:48;;;;;;;;;;;;;;;4.42;43.35;98871.06;4515187;31;34248;-85
2022/12/13 10:13:18;;;;;;;;;;;;;;;4.81;42.57;98867.19;4515159;31;34144;-86
2022/12/13 10:15:58;;;;;;;;;;;;;;;5.52;41.40;98859.81;4515206;31;34270;-86
2022/12/13 10:18:33;;;;;;;;;;;;;;;4.98;41.89;98861.69;4516297;31;33429;-85
2022/12/13 10:21:04;;;;;;;;;;;;;;;3.54;44.73;98864.66;4516620;31;34289;-85
2022/12/13 10:23:31;;;;;;;;;;;;;;;4.16;43.31;98853.09;4514950;31;34503;-86
2022/12/13 10:26:19;;;;;;;;;;;;;;;4.52;42.59;98857.69;4516618;31;34999;-84
2022/12/13 10:28:59;;;;;;;;;;;;;;;5.32;40.65;98856.69;4516281;31;33387;-85
2022/12/13 10:31:26;;;;;;;;;;;;;;;5.74;38.89;98856.13;4516410;31;33818;-86
2022/12/13 10:33:54;;;;;;;;;;;;;;;4.85;40.35;98845.91;4515102;31;34157;-84
2022/12/13 10:36:31;;;;;;;;;;;;;;;4.73;42.23;98850.66;4514844;31;35056;-85
2022/12/13 10:38:58;;;;;;;;;;;;;;;5.23;39.88;98850.44;4516949;31;33328;-86
2022/12/13 10:41:25;;;;;;;;;;;;;;;5.65;39.67;98848.19;4516148;31;34082;-84
2022/12/13 10:44:25;;;;;;;;;;;;;;;5.23;39.58;98841.03;4516211;31;34458;-86
2022/12/13 10:46:52;;;;;;;;;;;;;;;5.80;39.44;98833.16;4480998;31;33989;-85
2022/12/13 10:49:22;;;;;;;;;;;;;;;6.20;38.20;98836.75;4516232;31;33659;-86
2022/12/13 10:51:50;;;;;;;;;;;;;;;4.61;39.87;98833.16;4516223;31;34311;-82
2022/12/13 10:54:31;;;;;;;;;;;;;;;5.85;38.59;98841.84;4516362;31;34003;-84
2022/12/13 10:57:15;;;;;;;;;;;;;;;5.48;39.19;98833.97;4516275;31;33950;-86
2022/12/13 11:00:01;;;;;;;;;;;;;;;6.18;38.41;98833.31;4515463;31;34204;-85
2022/12/13 11:02:35;;;;;;;;;;;;;;;5.20;40.23;98840.06;4516013;31;34330;-85
2022/12/13 11:05:35;;;;;;;;;;;;;;;5.99;37.76;98823.38;4516195;31;34241;-85
2022/12/13 11:08:12;;;;;;;;;;;;;;;4.73;39.06;98824.97;4484694;31;33452;-85
2022/12/13 11:10:40;;;;;;;;;;;;;;;5.26;39.51;98827.37;4517614;31;34155;-83
2022/12/13 11:13:07;;;;;;;;;;;;;;;4.34;41.60;98833.19;4532059;31;35062;-86
2022/12/13 11:15:36;;;;;;;;;;;;;;;5.26;39.45;98827.37;4517386;31;34223;-86
2022/12/13 11:18:05;;;;;;;;;;;;;;;5.40;39.21;98823.50;4517780;31;34739;-86
2022/12/13 11:20:36;;;;;;;;;;;;;;;5.86;39.19;98814.44;4516832;31;33171;-85
2022/12/13 11:23:05;;;;;;;;;;;;;;;6.06;37.99;98817.53;4517690;31;34222;-85
2022/12/13 11:25:37;;;;;;;;;;;;;;;6.46;37.54;98808.22;4517620;31;34505;-86
2022/12/13 11:28:24;;;;;;;;;;;;;;;6.37;37.21;98806.28;4526251;31;34279;-86
2022/12/13 11:31:12;;;;;;;;;;;;;;;6.27;37.37;98797.47;4515842;31;33218;-85
2022/12/13 11:33:43;;;;;;;;;;;;;;;5.31;38.91;98803.56;4515990;31;34184;-86
2022/12/13 11:36:20;;;;;;;;;;;;;;;6.04;37.63;98801.19;4514381;31;34297;-85
2022/12/13 11:38:57;;;;;;;;;;;;;;;6.42;36.68;98790.94;4515810;31;35215;-85
2022/12/13 11:41:26;;;;;;;;;;;;;;;6.83;36.64;98795.31;4515772;31;33705;-85
2022/12/13 11:44:05;;;;;;;;;;;;;;;6.50;36.89;98795.44;4514613;31;34814;-85
2022/12/13 11:46:35;;;;;;;;;;;;;;;5.33;39.14;98804.44;4516067;31;34670;-85
2022/12/13 11:49:09;;;;;;;;;;;;;;;6.33;37.41;98802.78;4515530;31;35582;-86
2022/12/13 11:51:42;;;;;;;;;;;;;;;4.97;39.44;98806.88;4514577;31;33438;-84
2022/12/13 11:54:14;;;;;;;;;;;;;;;5.27;40.43;98812.00;4517952;31;34902;-86
2022/12/13 11:56:50;;;;;;;;;;;;;;;5.99;38.66;98802.78;4514909;31;35037;-86
2022/12/13 11:59:27;;;;;;;;;;;;;;;6.01;38.04;98803.69;4518097;31;34939;-86
2022/12/13 12:02:01;;;;;;;;;;;;;;;4.90;40.81;98799.81;4532161;31;33280;-88
2022/12/13 12:04:37;;;;;;;;;;;;;;;5.55;39.60;98799.91;4516989;31;33825;-86
2022/12/13 12:07:06;;;;;;;;;;;;;;;5.00;39.74;98806.06;4516902;31;34251;-86
2022/12/13 12:09:58;;;;;;;;;;;;;;;5.39;39.22;98805.47;4519752;31;33714;-86
2022/12/13 12:12:32;;;;;;;;;;;;;;;5.91;38.58;98793.94;4517213;31;33318;-86
2022/12/13 12:15:01;;;;;;;;;;;;;;;5.82;38.80;98803.19;4531657;31;34193;-85
2022/12/13 12:17:42;;;;;;;;;;;;;;;5.94;38.88;98794.06;4531370;31;33827;-85
2022/12/13 12:20:13;;;;;;;;;;;;;;;6.17;38.66;98799.78;4509732;31;34943;-84
2022/12/13 12:22:53;;;;;;;;;;;;;;;6.30;38.70;98797.56;4509690;31;33277;-83
2022/12/13 12:25:27;;;;;;;;;;;;;;;6.38;38.12;98789.13;4506580;31;34838;-85
2022/12/13 12:28:14;;;;;;;;;;;;;;;6.72;37.16;98796.78;4514290;31;35210;-85
2022/12/13 12:31:00;;;;;;;;;;;;;;;7.10;36.61;98791.56;4514554;31;34499;-85
2022/12/13 12:33:46;;;;;;;;;;;;;;;6.50;38.08;98792.00;4507703;31;33618;-85
2022/12/13 12:36:16;;;;;;;;;;;;;;;7.10;36.86;98795.88;4499292;31;33216;-85
2022/12/13 12:38:43;;;;;;;;;;;;;;;6.60;37.08;98793.94;4499443;31;34703;-83
2022/12/13 12:41:17;;;;;;;;;;;;;;;6.43;38.37;98792.69;4514000;31;33833;-84
2022/12/13 12:43:44;;;;;;;;;;;;;;;5.93;38.29;98784.62;4515141;31;33597;-85
2022/12/13 12:46:12;;;;;;;;;;;;;;;6.22;38.25;98775.91;4514307;31;34192;-82
2022/12/13 12:48:57;;;;;;;;;;;;;;;5.55;38.79;98781.91;4515943;31;34505;-86
2022/12/13 12:51:29;;;;;;;;;;;;;;;5.45;38.95;98793.62;4515322;31;34042;-83
2022/12/13 12:54:12;;;;;;;;;;;;;;;6.46;38.48;98782.47;4515183;31;33338;-84
2022/12/13 12:56:40;;;;;;;;;;;;;;;6.47;38.86;98791.91;4513668;31;33856;-83
2022/12/13 12:59:13;;;;;;;;;;;;;;;6.19;38.97;98793.84;4515000;31;35252;-83
2022/12/13 13:01:52;;;;;;;;;;;;;;;6.33;38.25;98796.75;4515022;31;33991;-85
2022/12/13 13:04:21;;;;;;;;;;;;;;;6.43;38.83;98792.69;4512321;31;34137;-81
2022/12/13 13:06:50;;;;;;;;;;;;;;;6.60;38.08;98800.81;4502811;31;34187;-85
2022/12/13 13:09:17;;;;;;;;;;;;;;;6.12;38.03;98793.66;4505176;31;34384;-83
2022/12/13 13:11:51;;;;;;;;;;;;;;;7.22;36.32;98799.56;4508693;31;33855;-83
2022/12/13 13:14:31;;;;;;;;;;;;;;;7.22;37.42;98799.56;4502107;31;34264;-85
2022/12/13 13:16:59;;;;;;;;;;;;;;;7.19;37.60;98796.03;4510301;31;35142;-81
2022/12/13 13:19:26;;;;;;;;;;;;;;;7.37;36.64;98803.28;4509623;31;34230;-81
2022/12/13 13:21:54;;;;;;;;;;;;;;;7.85;36.20;98799.88;4510018;31;34328;-82
2022/12/13 13:24:29;;;;;;;;;;;;;;;7.77;36.76;98807.50;4501834;31;33432;-80
2022/12/13 13:26:57;;;;;;;;;;;;;;;7.96;36.48;98811.28;4509325;31;33578;-82